createdAt,value
2019-06-20T00:01:18.591Z,16.07
2019-06-20T00:03:48.920Z,22.13
2019-06-20T00:06:19.268Z,18.50
2019-06-20T00:08:49.617Z,20.37
2019-06-20T00:11:19.980Z,18.37
2019-06-20T00:13:50.351Z,20.83
2019-06-20T00:16:20.718Z,22.27
2019-06-20T00:18:51.076Z,18.23
2019-06-20T00:21:21.392Z,21.00
2019-06-20T00:23:51.746Z,18.67
2019-06-20T00:26:22.068Z,20.90
2019-06-20T00:28:52.412Z,18.57
2019-06-20T00:31:22.106Z,19.60
2019-06-20T00:33:51.743Z,19.80
2019-06-20T00:36:21.979Z,17.07
2019-06-20T00:38:52.333Z,16.87
2019-06-20T00:41:21.998Z,24.20
2019-06-20T00:43:52.254Z,15.70
2019-06-20T00:46:22.594Z,16.57
2019-06-20T00:48:53.055Z,17.47
2019-06-20T00:51:22.805Z,17.40
2019-06-20T00:53:52.347Z,17.23
2019-06-20T00:56:22.610Z,16.93
2019-06-20T00:58:52.272Z,16.10
2019-06-20T01:01:22.492Z,16.90
2019-06-20T01:03:52.210Z,18.93
2019-06-20T01:06:22.422Z,12.97
2019-06-20T01:08:52.791Z,15.33
2019-06-20T01:11:23.114Z,18.93
2019-06-20T01:13:53.480Z,19.10
2019-06-20T01:16:23.930Z,15.20
2019-06-20T01:18:53.642Z,16.97
2019-06-20T01:21:23.905Z,16.87
2019-06-20T01:23:53.595Z,18.77
2019-06-20T01:26:23.841Z,15.87
2019-06-20T01:28:54.171Z,17.00
2019-06-20T01:31:24.542Z,15.43
2019-06-20T01:33:54.220Z,15.40
2019-06-20T01:36:23.831Z,21.37
2019-06-20T01:38:54.112Z,15.10
2019-06-20T01:41:23.823Z,19.07
2019-06-20T01:43:53.379Z,14.03
2019-06-20T01:46:23.745Z,16.60
2019-06-20T01:48:54.037Z,14.97
2019-06-20T01:51:23.742Z,18.53
2019-06-20T01:53:53.994Z,17.10
2019-06-20T01:56:23.675Z,16.00
2019-06-20T01:58:53.916Z,19.20
2019-06-20T02:01:23.609Z,18.17
2019-06-20T02:03:53.881Z,17.97
2019-06-20T02:06:23.650Z,20.10
2019-06-20T02:08:53.895Z,19.93
2019-06-20T02:11:23.577Z,19.43
2019-06-20T02:14:06.410Z,23.73
2019-06-20T02:16:24.424Z,17.40
2019-06-20T02:18:54.646Z,16.37
2019-06-20T02:21:24.999Z,18.47
2019-06-20T02:23:54.709Z,16.10
2019-06-20T02:26:24.274Z,16.47
2019-06-20T02:28:54.528Z,17.03
2019-06-20T02:31:24.880Z,15.23
2019-06-20T02:33:54.626Z,18.20
2019-06-20T02:36:24.862Z,12.40
2019-06-20T02:38:55.244Z,13.70
2019-06-20T02:41:25.549Z,15.13
2019-06-20T02:43:55.262Z,19.27
2019-06-20T02:46:25.712Z,14.53
2019-06-20T02:48:56.076Z,13.50
2019-06-20T02:51:27.102Z,13.33
2019-06-20T02:53:56.874Z,12.17
2019-06-20T02:56:27.086Z,12.13
2019-06-20T02:58:57.594Z,10.07
2019-06-20T03:01:27.272Z,10.40
2019-06-20T03:03:56.863Z,11.23
2019-06-20T03:06:27.108Z,10.77
2019-06-20T03:08:56.765Z,10.13
2019-06-20T03:11:27.017Z,7.43
2019-06-20T03:13:56.840Z,8.30
2019-06-20T03:16:27.162Z,6.97
2019-06-20T03:18:57.477Z,7.10
2019-06-20T03:21:27.819Z,7.30
2019-06-20T03:23:57.479Z,4.70
2019-06-20T03:26:27.713Z,5.37
2019-06-20T03:28:58.037Z,5.63
2019-06-20T03:31:28.398Z,7.12
2019-06-20T03:33:58.731Z,5.73
2019-06-20T03:36:29.034Z,6.00
2019-06-20T03:38:59.391Z,3.63
2019-06-20T03:41:29.686Z,6.17
2019-06-20T03:44:00.022Z,7.47
2019-06-20T03:46:30.304Z,5.47
2019-06-20T03:49:00.027Z,6.53
2019-06-20T03:51:30.276Z,5.33
2019-06-20T03:54:00.609Z,3.87
2019-06-20T03:56:31.037Z,6.17
2019-06-20T03:59:01.351Z,6.40
2019-06-20T04:01:31.679Z,3.97
2019-06-20T04:04:02.021Z,5.23
2019-06-20T04:06:32.514Z,8.30
2019-06-20T04:09:02.848Z,8.90
2019-06-20T04:11:33.233Z,8.75
2019-06-20T04:14:03.577Z,6.07
2019-06-20T04:16:33.905Z,4.80
2019-06-20T04:19:04.442Z,7.30
2019-06-20T04:21:34.794Z,10.03
2019-06-20T04:24:05.149Z,5.83
2019-06-20T04:26:34.937Z,6.70
2019-06-20T04:29:05.342Z,8.10
2019-06-20T04:31:35.675Z,8.33
2019-06-20T04:34:05.376Z,7.40
2019-06-20T04:36:35.608Z,4.83
2019-06-20T04:39:18.878Z,5.90
2019-06-20T04:41:38.421Z,8.07
2019-06-20T04:44:08.132Z,4.87
2019-06-20T04:46:59.454Z,8.30
2019-06-20T04:49:29.759Z,8.17
2019-06-20T04:52:00.117Z,6.50
2019-06-20T04:54:30.429Z,7.97
2019-06-20T04:57:00.807Z,6.37
2019-06-20T04:59:31.123Z,4.67
2019-06-20T05:02:01.472Z,5.27
2019-06-20T05:04:31.801Z,6.97
2019-06-20T05:07:11.434Z,8.33
2019-06-20T05:09:41.770Z,4.57
2019-06-20T05:12:12.105Z,6.50
2019-06-20T05:14:42.418Z,6.60
2019-06-20T05:17:13.062Z,5.40
2019-06-20T05:19:43.403Z,4.57
2019-06-20T05:22:13.745Z,3.67
2019-06-20T05:24:44.069Z,3.90
2019-06-20T05:27:14.376Z,4.07
2019-06-20T05:29:44.907Z,6.23
2019-06-20T05:32:15.337Z,9.50
2019-06-20T05:34:45.046Z,6.97
2019-06-20T05:37:15.351Z,7.07
2019-06-20T05:39:45.079Z,4.87
2019-06-20T05:42:15.356Z,3.50
2019-06-20T05:44:45.072Z,3.60
2019-06-20T05:47:16.399Z,4.90
2019-06-20T05:49:46.138Z,6.40
2019-06-20T05:52:17.364Z,6.27
2019-06-20T05:54:47.218Z,5.73
2019-06-20T05:57:16.851Z,5.30
2019-06-20T05:59:46.443Z,3.87
2019-06-20T06:02:16.069Z,3.37
2019-06-20T06:04:45.640Z,3.63
2019-06-20T06:07:15.922Z,5.00
2019-06-20T06:09:45.756Z,4.60
2019-06-20T06:12:16.026Z,4.27
2019-06-20T06:14:46.496Z,5.30
2019-06-20T06:17:16.874Z,3.27
2019-06-20T06:19:47.238Z,5.93
2019-06-20T06:22:17.584Z,7.23
2019-06-20T06:24:47.263Z,5.83
2019-06-20T06:27:17.561Z,4.73
2019-06-20T06:29:47.258Z,6.83
2019-06-20T06:32:20.065Z,4.17
2019-06-20T06:34:49.497Z,6.90
2019-06-20T06:37:19.195Z,7.13
2019-06-20T06:39:48.775Z,10.47
2019-06-20T06:42:18.426Z,6.47
2019-06-20T06:44:47.992Z,5.67
2019-06-20T06:47:18.261Z,5.67
2019-06-20T06:49:47.931Z,7.83
2019-06-20T06:52:18.186Z,5.93
2019-06-20T06:54:47.883Z,5.20
2019-06-20T06:57:18.179Z,10.00
2019-06-20T06:59:47.876Z,5.40
2019-06-20T07:02:18.175Z,3.67
2019-06-20T07:04:48.538Z,5.00
2019-06-20T07:07:18.357Z,5.93
2019-06-20T07:09:48.033Z,9.27
2019-06-20T07:12:18.518Z,5.57
2019-06-20T07:14:48.204Z,4.17
2019-06-20T07:17:18.476Z,5.23
2019-06-20T07:19:48.210Z,2.97
2019-06-20T07:22:18.540Z,2.67
2019-06-20T07:24:48.980Z,5.00
2019-06-20T07:27:18.714Z,4.70
2019-06-20T07:29:48.355Z,7.23
2019-06-20T07:32:18.001Z,3.33
2019-06-20T07:34:49.391Z,6.40
2019-06-20T07:37:19.846Z,4.00
2019-06-20T07:39:49.430Z,5.83
2019-06-20T07:42:19.819Z,5.20
2019-06-20T07:44:50.127Z,4.30
2019-06-20T07:47:20.874Z,6.73
2019-06-20T07:49:51.225Z,4.23
2019-06-20T07:52:21.694Z,3.60
2019-06-20T07:54:52.075Z,5.33
2019-06-20T07:57:22.441Z,3.23
2019-06-20T07:59:52.861Z,4.83
2019-06-20T08:02:23.291Z,4.20
2019-06-20T08:04:53.602Z,4.73
2019-06-20T08:07:23.375Z,4.20
2019-06-20T08:09:53.661Z,4.33
2019-06-20T08:12:23.421Z,5.43
2019-06-20T08:14:53.791Z,6.53
2019-06-20T08:17:34.925Z,6.53
2019-06-20T08:19:54.894Z,4.10
2019-06-20T08:22:25.199Z,5.53
2019-06-20T08:24:54.958Z,5.73
2019-06-20T08:27:53.193Z,5.27
2019-06-20T08:30:28.274Z,5.30
2019-06-20T08:33:01.551Z,3.33
2019-06-20T08:35:33.364Z,4.97
2019-06-20T08:38:05.605Z,4.30
2019-06-20T08:40:40.568Z,4.90
2019-06-20T08:43:10.425Z,4.07
2019-06-20T08:45:42.772Z,3.23
2019-06-20T08:48:12.514Z,5.93
2019-06-20T08:50:42.447Z,5.17
2019-06-20T08:53:12.102Z,5.17
2019-06-20T08:55:41.731Z,3.20
2019-06-20T08:58:11.374Z,4.07
2019-06-20T09:00:42.098Z,3.80
2019-06-20T09:03:11.895Z,5.87
2019-06-20T09:05:42.156Z,6.97
2019-06-20T09:08:12.179Z,5.03
2019-06-20T09:10:42.263Z,5.40
2019-06-20T09:13:12.331Z,4.03
2019-06-20T09:15:43.732Z,4.60
2019-06-20T09:18:13.718Z,3.97
2019-06-20T09:20:43.998Z,4.23
2019-06-20T09:23:14.375Z,4.47
2019-06-20T09:25:44.821Z,5.87
2019-06-20T09:28:15.362Z,3.97
2019-06-20T09:30:45.160Z,4.00
2019-06-20T09:33:15.630Z,4.07
2019-06-20T09:35:46.081Z,5.80
2019-06-20T09:38:15.944Z,5.00
2019-06-20T09:40:45.835Z,3.00
2019-06-20T09:43:27.305Z,6.27
2019-06-20T09:45:47.515Z,6.17
2019-06-20T09:48:17.314Z,6.20
2019-06-20T09:50:49.408Z,4.90
2019-06-20T09:53:20.713Z,4.92
2019-06-20T09:55:51.789Z,5.97
2019-06-20T09:58:22.729Z,9.10
2019-06-20T10:00:53.179Z,3.53
2019-06-20T10:03:22.951Z,3.43
2019-06-20T10:05:52.693Z,5.70
2019-06-20T10:08:22.983Z,4.47
2019-06-20T10:10:54.062Z,5.30
2019-06-20T10:13:23.899Z,4.13
2019-06-20T10:15:55.613Z,6.93
2019-06-20T10:18:25.480Z,5.37
2019-06-20T10:20:55.797Z,5.53
2019-06-20T10:23:25.580Z,4.53
2019-06-20T10:25:55.937Z,4.93
2019-06-20T10:28:25.792Z,5.53
2019-06-20T10:30:57.784Z,7.60
2019-06-20T10:33:27.609Z,5.47
2019-06-20T10:35:57.943Z,5.37
2019-06-20T10:38:27.671Z,4.40
2019-06-20T10:40:59.877Z,9.20
2019-06-20T10:43:29.382Z,7.27
2019-06-20T10:46:00.500Z,5.40
2019-06-20T10:48:30.252Z,6.53
2019-06-20T10:51:18.869Z,6.10
2019-06-20T10:53:49.503Z,4.97
2019-06-20T10:56:19.948Z,5.20
2019-06-20T10:58:50.731Z,3.17
2019-06-20T11:01:22.094Z,6.27
2019-06-20T11:03:51.810Z,2.87
2019-06-20T11:06:22.177Z,8.70
2019-06-20T11:08:52.621Z,6.97
2019-06-20T11:11:23.093Z,7.37
2019-06-20T11:13:53.561Z,4.27
2019-06-20T11:16:23.219Z,7.50
2019-06-20T11:18:53.533Z,5.93
2019-06-20T11:21:23.898Z,10.90
2019-06-20T11:23:53.657Z,2.97
2019-06-20T11:26:23.970Z,4.03
2019-06-20T11:28:53.730Z,6.30
2019-06-20T11:31:23.401Z,3.90
2019-06-20T11:33:53.002Z,5.63
2019-06-20T11:36:23.255Z,5.33
2019-06-20T11:38:52.959Z,8.13
2019-06-20T11:41:22.539Z,4.40
2019-06-20T11:43:52.822Z,7.73
2019-06-20T11:46:23.194Z,5.00
2019-06-20T11:48:53.542Z,5.73
2019-06-20T11:51:23.274Z,3.60
2019-06-20T11:53:53.541Z,5.50
2019-06-20T11:56:23.283Z,11.53
2019-06-20T11:58:52.902Z,4.43
2019-06-20T12:01:32.514Z,7.57
2019-06-20T12:03:56.114Z,6.03
2019-06-20T12:06:25.746Z,4.73
2019-06-20T12:08:56.696Z,5.17
2019-06-20T12:11:26.930Z,4.93
2019-06-20T12:13:56.679Z,4.73
2019-06-20T12:16:26.222Z,5.03
2019-06-20T12:18:55.830Z,3.83
2019-06-20T12:21:25.398Z,6.37
2019-06-20T12:23:55.852Z,5.30
2019-06-20T12:26:25.600Z,4.73
2019-06-20T12:28:55.881Z,4.53
2019-06-20T12:31:26.233Z,6.77
2019-06-20T12:33:55.978Z,4.23
2019-06-20T12:36:26.226Z,4.73
2019-06-20T12:38:55.936Z,6.13
2019-06-20T12:41:26.181Z,4.80
2019-06-20T12:43:55.876Z,4.10
2019-06-20T12:46:26.182Z,5.87
2019-06-20T12:48:55.871Z,5.65
2019-06-20T12:51:26.120Z,6.33
2019-06-20T12:53:55.779Z,5.07
2019-06-20T12:56:26.175Z,5.60
2019-06-20T12:58:55.890Z,5.67
2019-06-20T13:01:36.808Z,4.07
2019-06-20T13:03:58.278Z,7.80
2019-06-20T13:06:28.670Z,5.58
2019-06-20T13:08:59.057Z,6.83
2019-06-20T13:11:29.397Z,7.83
2019-06-20T13:13:59.155Z,6.23
2019-06-20T13:16:29.525Z,4.47
2019-06-20T13:18:59.278Z,3.43
2019-06-20T13:21:29.627Z,5.60
2019-06-20T13:24:00.567Z,4.43
2019-06-20T13:26:30.978Z,5.12
2019-06-20T13:29:04.378Z,9.03
2019-06-20T13:31:33.600Z,5.03
2019-06-20T13:34:04.076Z,8.77
2019-06-20T13:36:34.584Z,8.03
2019-06-20T13:39:06.697Z,8.67
2019-06-20T13:41:36.466Z,7.78
2019-06-20T13:44:06.143Z,5.47
2019-06-20T13:46:35.818Z,8.70
2019-06-20T13:49:05.553Z,8.03
2019-06-20T13:51:35.913Z,5.67
2019-06-20T13:54:05.671Z,7.83
2019-06-20T13:56:36.041Z,6.60
2019-06-20T13:59:06.018Z,4.80
2019-06-20T14:01:36.352Z,7.43
2019-06-20T14:04:06.007Z,3.60
2019-06-20T14:06:35.718Z,8.73
2019-06-20T14:09:06.585Z,7.77
2019-06-20T14:11:36.880Z,7.45
2019-06-20T14:14:06.642Z,5.90
2019-06-20T14:16:36.931Z,6.13
2019-06-20T14:19:06.750Z,6.37
2019-06-20T14:21:36.439Z,6.63
2019-06-20T14:24:06.734Z,7.80
2019-06-20T14:26:36.420Z,8.20
2019-06-20T14:29:06.023Z,8.10
2019-06-20T14:31:35.664Z,6.73
2019-06-20T14:34:06.343Z,8.33
2019-06-20T14:36:36.138Z,9.70
2019-06-20T14:39:07.686Z,7.97
2019-06-20T14:41:37.388Z,8.87
2019-06-20T14:44:07.046Z,5.27
2019-06-20T14:46:36.673Z,11.07
2019-06-20T14:49:06.973Z,6.27
2019-06-20T14:51:37.354Z,11.60
2019-06-20T14:54:07.068Z,7.33
2019-06-20T14:56:37.413Z,5.80
2019-06-20T14:59:07.114Z,7.90
2019-06-20T15:01:37.376Z,7.23
2019-06-20T15:04:07.805Z,11.33
2019-06-20T15:06:37.494Z,10.27
2019-06-20T15:09:08.459Z,7.13
2019-06-20T15:11:38.854Z,5.65
2019-06-20T15:14:08.552Z,5.03
2019-06-20T15:16:38.890Z,7.17
2019-06-20T15:19:08.585Z,14.47
2019-06-20T15:21:38.995Z,6.87
2019-06-20T15:24:08.718Z,5.27
2019-06-20T15:26:38.348Z,7.50
2019-06-20T15:29:07.969Z,9.77
2019-06-20T15:31:38.215Z,7.83
2019-06-20T15:34:07.960Z,6.37
2019-06-20T15:36:37.571Z,4.60
2019-06-20T15:39:08.692Z,7.57
2019-06-20T15:41:38.436Z,7.47
2019-06-20T15:44:08.819Z,9.30
2019-06-20T15:46:38.556Z,8.90
2019-06-20T15:49:16.089Z,6.50
2019-06-20T15:51:40.875Z,7.43
2019-06-20T15:54:11.441Z,7.60
2019-06-20T15:56:41.890Z,6.57
2019-06-20T15:59:12.369Z,7.80
2019-06-20T16:01:42.744Z,8.57
2019-06-20T16:04:12.555Z,9.43
2019-06-20T16:06:42.928Z,8.50
2019-06-20T16:09:13.411Z,8.33
2019-06-20T16:11:43.917Z,7.53
2019-06-20T16:14:17.794Z,8.73
2019-06-20T16:16:46.424Z,6.73
2019-06-20T16:19:16.770Z,6.57
2019-06-20T16:21:46.759Z,5.97
2019-06-20T16:24:17.016Z,6.27
2019-06-20T16:26:46.724Z,13.13
2019-06-20T16:29:16.979Z,8.33
2019-06-20T16:31:46.720Z,8.03
2019-06-20T16:34:17.064Z,5.03
2019-06-20T16:36:46.798Z,7.80
2019-06-20T16:39:16.429Z,8.37
2019-06-20T16:41:46.771Z,7.07
2019-06-20T16:44:16.519Z,7.10
2019-06-20T16:46:46.889Z,9.37
2019-06-20T16:49:16.637Z,10.27
2019-06-20T16:51:47.050Z,8.30
2019-06-20T16:54:16.855Z,9.33
2019-06-20T16:56:47.281Z,8.00
2019-06-20T16:59:17.024Z,8.43
2019-06-20T17:01:47.331Z,9.47
2019-06-20T17:04:17.020Z,7.47
2019-06-20T17:06:46.720Z,10.53
2019-06-20T17:09:16.415Z,8.67
2019-06-20T17:11:46.757Z,8.03
2019-06-20T17:14:16.472Z,11.60
2019-06-20T17:16:46.206Z,8.87
2019-06-20T17:19:16.649Z,9.20
2019-06-20T17:21:47.158Z,11.93
2019-06-20T17:24:17.654Z,15.73
2019-06-20T17:26:47.547Z,9.13
2019-06-20T17:29:17.900Z,9.27
2019-06-20T17:31:47.652Z,9.60
2019-06-20T17:34:17.284Z,9.53
2019-06-20T17:36:46.863Z,9.83
2019-06-20T17:39:17.793Z,8.93
2019-06-20T17:41:55.187Z,11.07
2019-06-20T17:44:19.607Z,13.40
2019-06-20T17:46:49.585Z,8.93
2019-06-20T17:49:20.571Z,13.07
2019-06-20T17:51:51.025Z,11.50
2019-06-20T17:54:21.418Z,14.13
2019-06-20T17:56:51.134Z,13.97
2019-06-20T17:59:22.863Z,15.93
2019-06-20T18:01:52.819Z,9.30
2019-06-20T18:04:22.549Z,12.67
2019-06-20T18:06:52.793Z,11.60
2019-06-20T18:09:22.473Z,13.13
2019-06-20T18:11:52.866Z,9.30
2019-06-20T18:14:22.688Z,10.83
2019-06-20T18:16:53.083Z,10.47
2019-06-20T18:19:22.894Z,9.07
2019-06-20T18:21:53.273Z,15.87
2019-06-20T18:24:23.032Z,12.77
2019-06-20T18:26:52.770Z,8.43
2019-06-20T18:29:22.457Z,8.53
2019-06-20T18:31:52.184Z,12.07
2019-06-20T18:34:29.917Z,14.63
2019-06-20T18:36:53.916Z,13.97
2019-06-20T18:39:24.452Z,13.63
2019-06-20T18:41:54.223Z,17.23
2019-06-20T18:44:23.936Z,10.47
2019-06-20T18:46:53.658Z,10.37
2019-06-20T18:49:23.750Z,8.57
2019-06-20T18:51:54.078Z,8.70
2019-06-20T18:54:25.128Z,20.13
2019-06-20T18:56:55.569Z,13.97
2019-06-20T18:59:25.307Z,9.40
2019-06-20T19:01:54.975Z,12.33
2019-06-20T19:04:24.891Z,13.35
2019-06-20T19:06:54.558Z,7.63
2019-06-20T19:09:24.407Z,15.63
2019-06-20T19:11:54.148Z,11.03
2019-06-20T19:14:23.875Z,11.27
2019-06-20T19:16:54.168Z,9.60
2019-06-20T19:19:23.964Z,9.20
2019-06-20T19:21:53.807Z,7.40
2019-06-20T19:24:23.441Z,16.97
2019-06-20T19:26:53.806Z,10.23
2019-06-20T19:29:23.524Z,13.03
2019-06-20T19:31:53.794Z,11.70
2019-06-20T19:34:24.127Z,22.23
2019-06-20T19:36:54.470Z,14.53
2019-06-20T19:39:24.845Z,14.50
2019-06-20T19:41:54.526Z,14.37
2019-06-20T19:44:24.144Z,14.43
2019-06-20T19:46:54.390Z,13.67
2019-06-20T19:49:24.091Z,14.27
2019-06-20T19:51:54.358Z,15.27
2019-06-20T19:54:24.055Z,17.77
2019-06-20T19:56:54.305Z,15.30
2019-06-20T19:59:23.997Z,14.70
2019-06-20T20:01:53.611Z,17.10
2019-06-20T20:04:23.219Z,14.37
2019-06-20T20:06:52.828Z,16.83
2019-06-20T20:09:22.500Z,10.20
2019-06-20T20:11:52.793Z,16.33
2019-06-20T20:14:22.518Z,18.83
2019-06-20T20:16:52.124Z,16.40
2019-06-20T20:19:22.356Z,18.23
2019-06-20T20:21:52.075Z,16.40
2019-06-20T20:24:22.367Z,16.10
2019-06-20T20:26:52.142Z,14.60
2019-06-20T20:29:22.423Z,19.60
2019-06-20T20:31:52.185Z,11.77
2019-06-20T20:34:22.417Z,15.10
2019-06-20T20:36:52.247Z,17.47
2019-06-20T20:39:22.472Z,19.70
2019-06-20T20:41:52.159Z,16.53
2019-06-20T20:44:22.464Z,13.90
2019-06-20T20:46:52.865Z,16.60
2019-06-20T20:49:23.217Z,14.07
2019-06-20T20:51:52.930Z,18.63
2019-06-20T20:54:23.155Z,16.77
2019-06-20T20:56:52.863Z,15.37
2019-06-20T20:59:23.243Z,14.50
2019-06-20T21:01:52.965Z,27.90
2019-06-20T21:04:23.243Z,14.27
2019-06-20T21:06:52.900Z,16.17
2019-06-20T21:09:23.248Z,19.90
2019-06-20T21:11:53.040Z,13.60
2019-06-20T21:14:23.315Z,11.07
2019-06-20T21:16:53.314Z,18.50
2019-06-20T21:19:22.946Z,15.43
2019-06-20T21:21:52.581Z,23.60
2019-06-20T21:24:23.011Z,16.67
2019-06-20T21:26:53.459Z,19.50
2019-06-20T21:29:23.153Z,17.70
2019-06-20T21:31:53.524Z,18.23
2019-06-20T21:34:23.320Z,21.17
2019-06-20T21:36:53.643Z,21.60
2019-06-20T21:39:23.344Z,18.70
2019-06-20T21:41:53.656Z,19.20
2019-06-20T21:44:23.494Z,24.17
2019-06-20T21:46:53.057Z,26.60
2019-06-20T21:49:22.758Z,19.27
2019-06-20T21:51:54.014Z,19.50
2019-06-20T21:54:24.449Z,33.90
2019-06-20T21:56:54.807Z,19.17
2019-06-20T21:59:25.206Z,15.50
2019-06-20T22:01:55.028Z,19.50
2019-06-20T22:04:25.326Z,11.53
2019-06-20T22:06:55.096Z,18.43
2019-06-20T22:09:24.745Z,17.30
2019-06-20T22:11:54.447Z,20.37
2019-06-20T22:14:24.712Z,18.43
2019-06-20T22:16:54.428Z,14.40
2019-06-20T22:19:24.688Z,17.93
2019-06-20T22:21:54.390Z,36.37
2019-06-20T22:24:24.642Z,25.77
2019-06-20T22:26:54.291Z,20.07
2019-06-20T22:29:24.605Z,15.13
2019-06-20T22:31:54.452Z,16.07
2019-06-20T22:34:24.792Z,22.53
2019-06-20T22:36:55.272Z,20.07
2019-06-20T22:39:25.655Z,14.67
2019-06-20T22:41:55.431Z,17.17
2019-06-20T22:44:25.705Z,19.50
2019-06-20T22:46:55.467Z,21.97
2019-06-20T22:49:25.758Z,21.17
2019-06-20T22:51:56.146Z,17.33
2019-06-20T22:54:25.950Z,19.80
2019-06-20T22:56:55.589Z,20.40
2019-06-20T22:59:25.909Z,14.40
2019-06-20T23:01:55.687Z,20.10
2019-06-20T23:04:26.026Z,20.07
2019-06-20T23:06:57.026Z,22.43
2019-06-20T23:09:27.654Z,19.83
2019-06-20T23:11:57.990Z,17.87
2019-06-20T23:14:28.354Z,21.48
2019-06-20T23:16:58.688Z,16.87
2019-06-20T23:19:29.062Z,16.10
2019-06-20T23:21:59.474Z,22.90
2019-06-20T23:24:29.827Z,19.97
2019-06-20T23:27:00.175Z,15.83
2019-06-20T23:29:30.590Z,17.40
2019-06-20T23:32:00.927Z,26.63
2019-06-20T23:34:31.372Z,22.27
2019-06-20T23:37:12.246Z,16.33
2019-06-20T23:39:33.725Z,15.43
2019-06-20T23:42:04.120Z,19.67
2019-06-20T23:44:34.609Z,19.27
2019-06-20T23:47:05.023Z,21.13
2019-06-20T23:49:35.423Z,21.17
2019-06-20T23:52:10.240Z,22.83
2019-06-20T23:54:40.514Z,18.43
2019-06-20T23:57:10.882Z,20.77
2019-06-20T23:59:41.242Z,16.00
